createdAt,value
2022-09-26T00:00:47.844Z,4.40
2022-09-26T00:05:51.506Z,3.90
2022-09-26T00:10:59.294Z,4.03
2022-09-26T00:16:04.950Z,4.55
2022-09-26T00:21:12.671Z,3.40
2022-09-26T00:26:19.377Z,4.75
2022-09-26T00:31:28.669Z,5.87
2022-09-26T00:36:38.467Z,4.43
2022-09-26T00:41:43.237Z,3.58
2022-09-26T00:46:50.414Z,3.53
2022-09-26T00:51:59.394Z,4.70
2022-09-26T00:57:10.137Z,3.78
2022-09-26T01:02:16.358Z,2.55
2022-09-26T01:07:24.852Z,2.95
2022-09-26T01:12:30.375Z,3.05
2022-09-26T01:17:35.755Z,3.60
2022-09-26T01:23:23.599Z,6.30
2022-09-26T01:28:57.784Z,2.97
2022-09-26T01:34:11.584Z,3.15
2022-09-26T01:39:32.183Z,4.05
2022-09-26T01:44:46.184Z,3.25
2022-09-26T01:50:00.241Z,3.50
2022-09-26T01:55:12.518Z,2.85
2022-09-26T02:00:18.584Z,5.05
2022-09-26T02:05:33.024Z,3.50
2022-09-26T02:10:41.446Z,2.00
2022-09-26T02:15:54.960Z,3.20
2022-09-26T02:21:05.253Z,3.08
2022-09-26T02:26:08.998Z,4.15
2022-09-26T02:31:20.693Z,3.53
2022-09-26T02:36:25.861Z,3.20
2022-09-26T02:41:41.503Z,7.65
2022-09-26T02:47:30.722Z,5.25
2022-09-26T02:52:51.990Z,2.75
2022-09-26T02:58:14.005Z,4.63
2022-09-26T03:03:26.486Z,3.75
2022-09-26T03:08:39.492Z,4.18
2022-09-26T03:13:45.458Z,2.05
2022-09-26T03:18:56.889Z,3.53
2022-09-26T03:24:02.176Z,4.53
2022-09-26T03:29:06.297Z,2.88
2022-09-26T03:34:12.312Z,2.30
2022-09-26T03:39:17.792Z,2.67
2022-09-26T03:44:36.639Z,3.45
2022-09-26T03:49:40.234Z,2.70
2022-09-26T03:54:46.825Z,4.22
2022-09-26T04:04:57.636Z,4.00
2022-09-26T04:10:03.061Z,2.15
2022-09-26T04:15:10.299Z,2.07
2022-09-26T04:20:13.939Z,4.43
2022-09-26T04:25:20.651Z,4.47
2022-09-26T04:30:24.194Z,2.95
2022-09-26T04:35:34.675Z,3.25
2022-09-26T04:40:42.794Z,3.97
2022-09-26T04:45:48.421Z,2.47
2022-09-26T04:50:52.102Z,2.67
2022-09-26T04:55:57.624Z,9.00
2022-09-26T05:01:04.750Z,3.40
2022-09-26T05:06:27.461Z,2.70
2022-09-26T05:11:33.086Z,3.58
2022-09-26T05:16:38.968Z,5.53
2022-09-26T05:21:44.315Z,4.90
2022-09-26T05:26:52.899Z,5.03
2022-09-26T05:31:57.983Z,3.58
2022-09-26T05:37:04.425Z,3.35
2022-09-26T05:42:10.747Z,4.55
2022-09-26T05:47:14.551Z,2.63
2022-09-26T05:52:18.358Z,3.33
2022-09-26T05:57:23.311Z,3.33
2022-09-26T06:02:30.992Z,3.63
2022-09-26T06:07:46.121Z,5.45
2022-09-26T06:13:09.757Z,4.03
2022-09-26T06:18:20.842Z,3.22
2022-09-26T06:23:25.580Z,3.05
2022-09-26T06:28:32.401Z,2.35
2022-09-26T06:33:36.205Z,5.88
2022-09-26T06:39:04.572Z,3.20
2022-09-26T06:49:45.297Z,5.28
2022-09-26T06:55:11.105Z,3.28
2022-09-26T07:00:17.775Z,4.88
2022-09-26T07:05:43.816Z,2.75
2022-09-26T07:10:48.320Z,4.35
2022-09-26T07:16:00.327Z,6.18
2022-09-26T07:21:22.569Z,3.10
2022-09-26T07:26:55.190Z,2.95
2022-09-26T07:32:01.265Z,3.50
2022-09-26T07:37:25.199Z,4.97
2022-09-26T07:42:31.652Z,9.07
2022-09-26T07:47:54.713Z,8.55
2022-09-26T08:00:14.245Z,5.33
2022-09-26T08:05:24.752Z,5.68
2022-09-26T08:10:29.486Z,5.28
2022-09-26T08:15:52.262Z,10.05
2022-09-26T08:21:05.893Z,10.18
2022-09-26T08:26:10.191Z,12.52
2022-09-26T08:31:23.254Z,6.95
2022-09-26T08:36:28.770Z,7.25
2022-09-26T08:42:08.852Z,7.72
2022-09-26T08:47:43.807Z,6.80
2022-09-26T08:53:11.213Z,7.30
2022-09-26T08:58:29.041Z,8.85
2022-09-26T09:03:49.126Z,6.25
2022-09-26T09:08:57.993Z,6.78
2022-09-26T09:14:32.651Z,7.07
2022-09-26T09:19:48.906Z,5.32
2022-09-26T09:25:39.009Z,10.32
2022-09-26T09:30:48.436Z,6.03
2022-09-26T09:36:14.060Z,6.38
2022-09-26T09:41:45.186Z,5.93
2022-09-26T09:46:51.051Z,4.13
2022-09-26T09:52:15.591Z,10.25
2022-09-26T09:58:17.118Z,8.57
2022-09-26T10:03:28.773Z,3.80
2022-09-26T10:08:41.345Z,5.38
2022-09-26T10:14:13.293Z,6.50
2022-09-26T10:19:52.874Z,5.57
2022-09-26T10:25:06.173Z,6.63
2022-09-26T10:30:30.339Z,3.75
2022-09-26T10:35:44.782Z,4.93
2022-09-26T10:40:55.384Z,6.60
2022-09-26T10:46:11.581Z,4.45
2022-09-26T10:51:45.052Z,6.80
2022-09-26T10:56:54.312Z,6.85
2022-09-26T11:02:02.535Z,5.57
2022-09-26T11:07:10.193Z,4.82
2022-09-26T11:12:29.764Z,4.72
2022-09-26T11:17:47.992Z,4.63
2022-09-26T11:23:06.769Z,6.30
2022-09-26T11:28:19.371Z,5.53
2022-09-26T11:33:47.431Z,4.10
2022-09-26T11:39:39.539Z,5.63
2022-09-26T11:44:58.564Z,10.95
2022-09-26T11:50:28.951Z,7.70
2022-09-26T12:29:59.371Z,16.90
2022-09-26T12:41:27.468Z,10.73
2022-09-26T12:46:50.495Z,11.38
2022-09-26T12:51:58.596Z,11.30
2022-09-26T12:57:14.952Z,13.85
2022-09-26T13:02:46.083Z,9.73
2022-09-26T13:08:04.893Z,6.97
2022-09-26T13:14:12.446Z,6.53
2022-09-26T13:19:25.316Z,5.55
2022-09-26T13:24:52.820Z,7.72
2022-09-26T13:35:21.444Z,7.18
2022-09-26T13:40:41.124Z,8.77
2022-09-26T13:46:00.541Z,5.97
2022-09-26T13:51:19.322Z,6.13
2022-09-26T13:56:49.635Z,6.30
2022-09-26T14:02:26.507Z,9.00
2022-09-26T14:08:12.848Z,7.30
2022-09-26T14:13:34.971Z,4.45
2022-09-26T14:19:06.495Z,4.97
2022-09-26T14:24:37.594Z,5.30
2022-09-26T14:29:51.866Z,5.40
2022-09-26T14:35:01.841Z,4.80
2022-09-26T14:40:29.406Z,4.32
2022-09-26T14:45:49.828Z,4.47
2022-09-26T14:51:02.302Z,4.50
2022-09-26T14:56:11.620Z,5.75
2022-09-26T15:01:30.088Z,5.63
2022-09-26T15:06:43.861Z,5.28
2022-09-26T15:11:50.502Z,4.82
2022-09-26T15:16:57.191Z,5.47
2022-09-26T15:22:06.657Z,5.82
2022-09-26T15:27:15.464Z,5.63
2022-09-26T15:32:26.698Z,3.13
2022-09-26T15:37:36.116Z,4.88
2022-09-26T15:42:57.270Z,4.72
2022-09-26T15:48:04.279Z,3.40
2022-09-26T15:53:24.152Z,3.57
2022-09-26T15:58:37.138Z,5.38
2022-09-26T16:03:55.209Z,4.03
2022-09-26T16:09:17.816Z,2.53
2022-09-26T16:14:30.380Z,2.75
2022-09-26T16:19:37.205Z,3.80
2022-09-26T16:24:42.399Z,2.77
2022-09-26T16:29:52.220Z,3.13
2022-09-26T16:34:55.855Z,2.70
2022-09-26T16:40:01.241Z,3.80
2022-09-26T16:45:08.077Z,2.45
2022-09-26T16:50:29.758Z,6.50
2022-09-26T16:55:37.598Z,51.40
2022-09-26T17:00:59.606Z,154.68
2022-09-26T17:06:03.393Z,178.02
2022-09-26T17:11:17.144Z,165.02
2022-09-26T17:16:22.106Z,129.30
2022-09-26T17:21:25.921Z,136.85
2022-09-26T17:26:34.980Z,136.65
2022-09-26T17:31:38.794Z,131.45
2022-09-26T17:36:49.031Z,133.52
2022-09-26T17:41:55.097Z,106.55
2022-09-26T17:46:59.125Z,99.95
2022-09-26T17:52:05.434Z,88.45
2022-09-26T17:57:14.386Z,91.00
2022-09-26T18:02:31.653Z,86.00
2022-09-26T18:07:40.955Z,84.30
2022-09-26T18:12:46.273Z,81.80
2022-09-26T18:17:51.539Z,77.32
2022-09-26T18:22:55.424Z,70.80
2022-09-26T18:28:09.255Z,68.10
2022-09-26T18:33:16.721Z,59.95
2022-09-26T18:38:20.799Z,64.85
2022-09-26T18:43:39.042Z,54.92
2022-09-26T18:48:45.882Z,59.58
2022-09-26T18:53:49.490Z,54.10
2022-09-26T18:58:54.661Z,54.22
2022-09-26T19:04:02.635Z,47.70
2022-09-26T19:09:11.951Z,48.15
2022-09-26T19:14:20.664Z,47.45
2022-09-26T19:19:25.446Z,50.17
2022-09-26T19:24:36.761Z,41.60
2022-09-26T19:29:46.360Z,61.60
2022-09-26T19:34:56.305Z,138.55
2022-09-26T19:40:00.112Z,208.82
2022-09-26T19:45:06.674Z,253.63
2022-09-26T19:50:17.796Z,269.75
2022-09-26T19:55:25.703Z,255.32
2022-09-26T20:00:31.241Z,249.45
2022-09-26T20:05:35.484Z,248.45
2022-09-26T20:10:39.062Z,232.98
2022-09-26T20:15:44.801Z,220.63
2022-09-26T20:20:54.620Z,220.60
2022-09-26T20:25:59.039Z,196.13
2022-09-26T20:31:04.485Z,179.15
2022-09-26T20:36:10.981Z,177.90
2022-09-26T20:41:22.640Z,173.55
2022-09-26T20:46:31.411Z,158.10
2022-09-26T20:51:36.438Z,157.30
2022-09-26T20:56:41.152Z,144.95
2022-09-26T21:01:46.215Z,140.95
2022-09-26T21:06:50.452Z,143.85
2022-09-26T21:11:54.084Z,129.90
2022-09-26T21:16:59.298Z,128.35
2022-09-26T21:22:03.098Z,115.30
2022-09-26T21:27:15.544Z,119.50
2022-09-26T21:32:23.734Z,102.43
2022-09-26T21:37:27.557Z,105.88
2022-09-26T21:42:31.336Z,96.93
2022-09-26T21:47:38.029Z,91.32
2022-09-26T21:52:47.512Z,85.77
2022-09-26T21:57:54.417Z,78.05
2022-09-26T22:03:01.724Z,70.93
2022-09-26T22:08:05.239Z,70.80
2022-09-26T22:13:09.045Z,66.32
2022-09-26T22:18:14.476Z,59.30
2022-09-26T22:23:18.180Z,59.83
2022-09-26T22:28:21.907Z,54.97
2022-09-26T22:33:27.032Z,49.25
2022-09-26T22:38:30.678Z,51.80
2022-09-26T22:43:35.297Z,47.40
2022-09-26T22:48:43.123Z,46.97
2022-09-26T22:53:46.959Z,45.13
2022-09-26T22:58:53.258Z,41.70
2022-09-26T23:04:00.431Z,39.35
2022-09-26T23:09:04.117Z,39.17
2022-09-26T23:14:08.094Z,34.70
2022-09-26T23:19:12.947Z,36.40
2022-09-26T23:24:16.715Z,31.95
2022-09-26T23:29:20.436Z,35.38
2022-09-26T23:34:25.447Z,33.08
2022-09-26T23:39:29.070Z,31.57
2022-09-26T23:44:34.865Z,32.55
2022-09-26T23:49:39.940Z,27.25
2022-09-26T23:54:43.596Z,27.55
2022-09-26T23:59:47.281Z,26.95
